METAR Formatted Surface Weather Observation
Issued by NWS

Home | Current Version | Previous Version | Text Only | Print | Product List | Glossary On
Versions: 1 2 3 4
000
SAUS43 KDTX 262354
MTRP58
METAR KP58 262351Z AUTO VRB05KT 15/07 A2981 RMK AO1 SLP092 P0001
60001 T01500072 10189 20144 51009 $



USA.gov is the U.S. government's official web portal to all federal, state and local government web resources and services.